createdAt,value
2019-05-20T00:01:04.023Z,14.03
2019-05-20T00:03:32.235Z,14.00
2019-05-20T00:06:00.617Z,14.38
2019-05-20T00:08:28.888Z,12.93
2019-05-20T00:10:57.446Z,12.95
2019-05-20T00:13:25.659Z,13.58
2019-05-20T00:15:54.642Z,13.53
2019-05-20T00:18:22.855Z,13.60
2019-05-20T00:20:51.057Z,14.05
2019-05-20T00:23:19.271Z,14.50
2019-05-20T00:25:47.467Z,14.43
2019-05-20T00:28:15.684Z,15.40
2019-05-20T00:30:44.174Z,13.78
2019-05-20T00:33:12.393Z,13.53
2019-05-20T00:35:40.587Z,14.63
2019-05-20T00:38:09.360Z,15.03
2019-05-20T00:40:37.898Z,15.65
2019-05-20T00:43:06.106Z,14.80
2019-05-20T00:45:34.706Z,15.38
2019-05-20T00:48:03.756Z,15.70
2019-05-20T00:50:33.412Z,14.87
2019-05-20T00:53:01.616Z,15.05
2019-05-20T00:55:30.212Z,15.75
2019-05-20T00:57:59.005Z,16.10
2019-05-20T01:00:27.300Z,16.82
2019-05-20T01:02:57.161Z,15.50
2019-05-20T01:05:25.494Z,14.60
2019-05-20T01:07:53.733Z,15.60
2019-05-20T01:10:22.524Z,14.93
2019-05-20T01:12:51.497Z,15.72
2019-05-20T01:15:19.720Z,16.02
2019-05-20T01:17:47.924Z,16.25
2019-05-20T01:20:16.130Z,16.97
2019-05-20T01:22:44.763Z,16.02
2019-05-20T01:25:13.042Z,15.68
2019-05-20T01:27:41.524Z,16.23
2019-05-20T01:30:10.480Z,15.90
2019-05-20T01:32:38.683Z,14.10
2019-05-20T01:35:07.685Z,16.17
2019-05-20T01:37:35.893Z,17.12
2019-05-20T01:40:04.271Z,16.25
2019-05-20T01:42:32.470Z,17.12
2019-05-20T01:45:00.697Z,17.27
2019-05-20T01:47:29.371Z,17.05
2019-05-20T01:49:58.909Z,15.60
2019-05-20T01:52:27.123Z,16.87
2019-05-20T01:54:55.338Z,17.77
2019-05-20T01:57:23.561Z,15.13
2019-05-20T01:59:52.096Z,17.30
2019-05-20T02:02:20.313Z,16.30
2019-05-20T02:04:48.521Z,17.98
2019-05-20T02:07:17.305Z,20.23
2019-05-20T02:09:46.284Z,20.62
2019-05-20T02:12:14.497Z,19.10
2019-05-20T02:15:02.575Z,19.62
2019-05-20T02:17:30.783Z,20.17
2019-05-20T02:19:59.849Z,20.27
2019-05-20T02:22:28.066Z,18.40
2019-05-20T02:24:56.305Z,18.77
2019-05-20T02:27:25.760Z,22.58
2019-05-20T02:29:53.959Z,18.10
2019-05-20T02:32:22.171Z,16.95
2019-05-20T02:34:50.944Z,18.25
2019-05-20T02:37:19.166Z,20.45
2019-05-20T02:39:47.366Z,18.05
2019-05-20T02:42:15.580Z,19.85
2019-05-20T02:44:44.557Z,18.12
2019-05-20T02:47:12.786Z,20.02
2019-05-20T02:49:40.987Z,20.00
2019-05-20T02:52:09.205Z,20.97
2019-05-20T02:54:37.980Z,19.35
2019-05-20T02:57:06.215Z,21.27
2019-05-20T02:59:34.392Z,21.42
2019-05-20T03:02:03.612Z,23.42
2019-05-20T03:04:31.809Z,22.73
2019-05-20T03:07:00.029Z,23.40
2019-05-20T03:09:28.236Z,22.27
2019-05-20T03:11:56.479Z,22.32
2019-05-20T03:14:24.691Z,21.87
2019-05-20T03:16:52.878Z,20.43
2019-05-20T03:19:21.091Z,22.62
2019-05-20T03:21:49.297Z,23.55
2019-05-20T03:24:17.503Z,22.45
2019-05-20T03:26:45.706Z,24.18
2019-05-20T03:29:14.097Z,21.17
2019-05-20T03:31:42.293Z,19.52
2019-05-20T03:34:38.925Z,18.12
2019-05-20T03:36:40.432Z,21.12
2019-05-20T03:39:08.646Z,23.52
2019-05-20T03:41:37.313Z,24.45
2019-05-20T03:44:05.524Z,21.42
2019-05-20T03:46:33.724Z,23.75
2019-05-20T03:49:01.946Z,27.52
2019-05-20T03:51:30.143Z,24.50
2019-05-20T03:53:58.361Z,23.67
2019-05-20T03:56:26.566Z,22.95
2019-05-20T03:58:54.810Z,21.25
2019-05-20T04:01:23.017Z,25.62
2019-05-20T04:03:51.231Z,28.35
2019-05-20T04:06:19.436Z,30.57
2019-05-20T04:08:47.650Z,28.50
2019-05-20T04:11:15.859Z,28.50
2019-05-20T04:13:44.072Z,26.50
2019-05-20T04:16:12.273Z,29.85
2019-05-20T04:18:40.490Z,36.20
2019-05-20T04:21:09.007Z,36.50
2019-05-20T04:23:37.314Z,35.40
2019-05-20T04:26:05.515Z,32.40
2019-05-20T04:28:33.742Z,32.63
2019-05-20T04:31:01.970Z,31.48
2019-05-20T04:33:30.832Z,32.80
2019-05-20T04:35:59.048Z,34.65
2019-05-20T04:38:27.489Z,32.83
2019-05-20T04:40:55.705Z,32.58
2019-05-20T04:43:23.901Z,32.65
2019-05-20T04:45:52.293Z,35.30
2019-05-20T04:48:20.800Z,34.53
2019-05-20T04:50:49.789Z,34.70
2019-05-20T04:53:18.761Z,38.25
2019-05-20T04:55:47.649Z,40.70
2019-05-20T04:58:15.856Z,39.85
2019-05-20T05:00:54.607Z,43.55
2019-05-20T05:03:22.987Z,42.25
2019-05-20T05:05:51.184Z,42.00
2019-05-20T05:08:22.048Z,41.13
2019-05-20T05:10:50.257Z,40.17
2019-05-20T05:13:18.455Z,39.03
2019-05-20T05:15:46.677Z,38.48
2019-05-20T05:18:14.963Z,39.20
2019-05-20T05:20:44.410Z,36.25
2019-05-20T05:23:12.612Z,34.73
2019-05-20T05:25:40.824Z,33.70
2019-05-20T05:28:09.034Z,35.63
2019-05-20T05:30:37.573Z,40.30
2019-05-20T05:33:05.772Z,37.25
2019-05-20T05:35:33.977Z,36.45
2019-05-20T05:38:02.902Z,36.65
2019-05-20T05:40:31.864Z,36.63
2019-05-20T05:43:00.075Z,36.55
2019-05-20T05:45:32.512Z,37.80
2019-05-20T05:48:00.805Z,37.10
2019-05-20T05:50:29.076Z,40.38
2019-05-20T05:52:57.299Z,36.55
2019-05-20T05:55:25.768Z,36.53
2019-05-20T05:57:53.995Z,36.58
2019-05-20T06:00:22.254Z,35.13
2019-05-20T06:02:50.469Z,35.92
2019-05-20T06:05:18.674Z,34.80
2019-05-20T06:07:47.579Z,37.33
2019-05-20T06:10:15.752Z,37.00
2019-05-20T06:12:44.754Z,36.10
2019-05-20T06:15:12.961Z,38.02
2019-05-20T06:17:41.171Z,36.28
2019-05-20T06:20:09.388Z,35.35
2019-05-20T06:22:38.359Z,36.38
2019-05-20T06:25:06.633Z,33.25
2019-05-20T06:27:34.840Z,33.23
2019-05-20T06:30:05.148Z,33.38
2019-05-20T06:35:00.973Z,32.58
2019-05-20T06:37:36.792Z,32.25
2019-05-20T06:40:05.163Z,31.70
2019-05-20T06:42:33.362Z,29.60
2019-05-20T06:45:01.585Z,32.28
2019-05-20T06:47:29.864Z,29.75
2019-05-20T06:49:58.086Z,30.90
2019-05-20T06:52:35.388Z,32.13
2019-05-20T06:54:56.239Z,30.75
2019-05-20T06:57:24.449Z,30.60
2019-05-20T06:59:52.660Z,31.50
2019-05-20T07:02:20.867Z,30.10
2019-05-20T07:04:49.081Z,30.62
2019-05-20T07:07:21.187Z,30.43
2019-05-20T07:09:48.007Z,31.50
2019-05-20T07:12:16.203Z,29.02
2019-05-20T07:14:44.429Z,32.83
2019-05-20T07:17:12.636Z,32.25
2019-05-20T07:19:40.850Z,33.18
2019-05-20T07:22:09.055Z,31.90
2019-05-20T07:24:37.283Z,33.60
2019-05-20T07:27:05.493Z,34.40
2019-05-20T07:29:34.461Z,32.50
2019-05-20T07:32:03.625Z,31.60
2019-05-20T07:34:31.864Z,31.55
2019-05-20T07:37:03.768Z,30.25
2019-05-20T07:39:30.017Z,29.75
2019-05-20T07:41:58.219Z,30.15
2019-05-20T07:44:26.986Z,29.72
2019-05-20T07:46:55.224Z,29.40
2019-05-20T07:49:23.423Z,31.33
2019-05-20T07:51:51.643Z,32.38
2019-05-20T07:54:19.842Z,31.57
2019-05-20T07:56:48.064Z,33.02
2019-05-20T07:59:17.031Z,33.83
2019-05-20T08:01:45.253Z,31.87
2019-05-20T08:04:13.546Z,33.42
2019-05-20T08:06:42.041Z,34.13
2019-05-20T08:09:10.227Z,34.33
2019-05-20T08:11:38.472Z,34.90
2019-05-20T08:14:06.673Z,34.38
2019-05-20T08:16:34.895Z,35.25
2019-05-20T08:19:03.112Z,35.83
2019-05-20T08:21:32.081Z,34.75
2019-05-20T08:24:00.296Z,35.08
2019-05-20T08:26:28.544Z,34.40
2019-05-20T08:28:56.777Z,34.20
2019-05-20T08:31:25.005Z,35.85
2019-05-20T08:33:53.467Z,34.75
2019-05-20T08:36:22.343Z,35.35
2019-05-20T08:38:50.546Z,35.75
2019-05-20T08:41:18.740Z,35.70
2019-05-20T08:43:46.952Z,36.35
2019-05-20T08:46:15.153Z,37.70
2019-05-20T08:48:43.373Z,37.28
2019-05-20T08:51:12.339Z,37.93
2019-05-20T08:53:40.585Z,37.98
2019-05-20T08:56:08.859Z,37.98
2019-05-20T08:58:37.048Z,38.95
2019-05-20T09:01:05.848Z,37.83
2019-05-20T09:03:34.454Z,37.85
2019-05-20T09:06:02.742Z,39.38
2019-05-20T09:08:31.404Z,38.35
2019-05-20T09:10:59.866Z,39.38
2019-05-20T09:13:28.670Z,39.38
2019-05-20T09:15:56.860Z,38.85
2019-05-20T09:18:25.428Z,38.75
2019-05-20T09:20:53.623Z,38.45
2019-05-20T09:23:22.319Z,39.55
2019-05-20T09:25:50.507Z,38.50
2019-05-20T09:28:18.752Z,40.80
2019-05-20T09:30:46.946Z,40.85
2019-05-20T09:33:16.017Z,40.95
2019-05-20T09:35:44.394Z,39.98
2019-05-20T09:38:19.966Z,40.60
2019-05-20T09:40:47.841Z,41.35
2019-05-20T09:43:16.050Z,44.30
2019-05-20T09:45:44.266Z,41.95
2019-05-20T09:48:13.607Z,44.25
2019-05-20T09:50:42.588Z,43.07
2019-05-20T09:53:10.811Z,42.35
2019-05-20T09:55:39.772Z,41.42
2019-05-20T09:58:07.983Z,39.88
2019-05-20T10:00:36.209Z,41.30
2019-05-20T10:03:05.290Z,40.70
2019-05-20T10:05:37.195Z,39.13
2019-05-20T10:08:04.194Z,39.98
2019-05-20T10:10:32.409Z,40.95
2019-05-20T10:13:01.489Z,40.38
2019-05-20T10:15:30.032Z,39.95
2019-05-20T10:17:58.556Z,39.90
2019-05-20T10:20:26.756Z,41.20
2019-05-20T10:22:55.101Z,41.95
2019-05-20T10:25:23.375Z,39.83
2019-05-20T10:27:51.519Z,40.00
2019-05-20T10:30:19.733Z,39.08
2019-05-20T10:32:47.937Z,40.70
2019-05-20T10:35:16.164Z,40.83
2019-05-20T10:37:44.365Z,38.35
2019-05-20T10:40:12.595Z,39.15
2019-05-20T10:42:40.794Z,39.00
2019-05-20T10:45:09.012Z,40.17
2019-05-20T10:47:37.207Z,38.73
2019-05-20T10:50:06.727Z,41.08
2019-05-20T10:52:34.936Z,39.63
2019-05-20T10:55:03.904Z,38.70
2019-05-20T10:57:32.127Z,39.55
2019-05-20T11:00:00.331Z,38.17
2019-05-20T11:02:31.295Z,37.63
2019-05-20T11:04:58.510Z,39.50
2019-05-20T11:07:26.716Z,38.83
2019-05-20T11:09:54.926Z,38.02
2019-05-20T11:12:23.931Z,40.30
2019-05-20T11:14:52.136Z,42.15
2019-05-20T11:17:20.354Z,41.85
2019-05-20T11:19:48.555Z,40.38
2019-05-20T11:22:16.781Z,40.78
2019-05-20T11:24:45.280Z,39.35
2019-05-20T11:27:13.491Z,38.78
2019-05-20T11:29:42.041Z,38.85
2019-05-20T11:32:10.272Z,37.40
2019-05-20T11:34:38.563Z,38.15
2019-05-20T11:37:06.805Z,39.25
2019-05-20T11:39:35.034Z,39.40
2019-05-20T11:42:03.242Z,40.12
2019-05-20T11:44:31.441Z,38.75
2019-05-20T11:46:59.692Z,40.30
2019-05-20T11:49:29.322Z,36.77
2019-05-20T11:51:57.685Z,37.40
2019-05-20T11:54:25.900Z,36.35
2019-05-20T11:56:54.105Z,34.53
2019-05-20T11:59:22.315Z,34.65
2019-05-20T12:01:51.297Z,35.58
2019-05-20T12:04:19.506Z,36.63
2019-05-20T12:06:47.765Z,36.90
2019-05-20T12:09:15.973Z,37.90
2019-05-20T12:11:44.192Z,36.33
2019-05-20T12:14:12.959Z,36.80
2019-05-20T12:16:41.167Z,37.23
2019-05-20T12:19:09.385Z,37.28
2019-05-20T12:21:37.593Z,36.65
2019-05-20T12:24:05.811Z,35.52
2019-05-20T12:26:34.020Z,37.17
2019-05-20T12:29:02.244Z,35.73
2019-05-20T12:31:31.779Z,35.33
2019-05-20T12:34:00.672Z,34.25
2019-05-20T12:36:28.880Z,34.63
2019-05-20T12:38:57.098Z,34.55
2019-05-20T12:41:25.512Z,36.73
2019-05-20T12:44:11.073Z,35.08
2019-05-20T12:46:23.713Z,34.75
2019-05-20T12:48:51.955Z,36.00
2019-05-20T12:51:20.142Z,35.48
2019-05-20T12:53:48.351Z,36.10
2019-05-20T12:56:19.373Z,36.75
2019-05-20T12:58:46.522Z,40.23
2019-05-20T13:01:15.180Z,37.15
2019-05-20T13:03:43.404Z,37.05
2019-05-20T13:06:12.389Z,37.63
2019-05-20T13:08:40.582Z,34.95
2019-05-20T13:11:08.803Z,36.30
2019-05-20T13:13:36.996Z,37.85
2019-05-20T13:16:05.208Z,37.38
2019-05-20T13:18:33.409Z,38.25
2019-05-20T13:21:01.664Z,38.15
2019-05-20T13:23:29.895Z,34.85
2019-05-20T13:25:58.119Z,36.85
2019-05-20T13:28:26.630Z,38.08
2019-05-20T13:30:55.636Z,36.10
2019-05-20T13:33:23.821Z,35.40
2019-05-20T13:35:52.604Z,36.42
2019-05-20T13:38:20.809Z,35.17
2019-05-20T13:40:49.024Z,36.88
2019-05-20T13:43:17.228Z,34.10
2019-05-20T13:45:47.989Z,36.00
2019-05-20T13:48:15.385Z,34.80
2019-05-20T13:50:43.758Z,35.35
2019-05-20T13:53:12.055Z,36.42
2019-05-20T13:55:40.336Z,38.48
2019-05-20T13:58:08.548Z,36.70
2019-05-20T14:00:36.747Z,36.75
2019-05-20T14:03:04.963Z,34.00
2019-05-20T14:05:33.169Z,34.38
2019-05-20T14:08:01.405Z,34.00
2019-05-20T14:10:29.582Z,35.10
2019-05-20T14:12:58.473Z,35.08
2019-05-20T14:15:26.686Z,36.20
2019-05-20T14:17:54.937Z,36.55
2019-05-20T14:20:23.161Z,35.45
2019-05-20T14:22:51.490Z,37.42
2019-05-20T14:25:19.699Z,34.10
2019-05-20T14:27:47.908Z,36.08
2019-05-20T14:30:16.104Z,35.70
2019-05-20T14:32:44.617Z,38.13
2019-05-20T14:35:12.806Z,34.08
2019-05-20T14:37:41.595Z,38.73
2019-05-20T14:40:10.056Z,35.08
2019-05-20T14:42:38.331Z,38.08
2019-05-20T14:45:06.824Z,39.30
2019-05-20T14:47:35.036Z,40.23
2019-05-20T14:50:05.110Z,42.67
2019-05-20T14:52:33.340Z,44.50
2019-05-20T14:55:01.549Z,44.53
2019-05-20T14:57:29.768Z,45.65
2019-05-20T14:59:57.991Z,50.28
2019-05-20T15:02:30.529Z,50.20
2019-05-20T15:04:56.121Z,50.80
2019-05-20T15:07:30.208Z,46.80
2019-05-20T15:09:54.284Z,50.40
2019-05-20T15:12:23.167Z,49.38
2019-05-20T15:14:51.368Z,50.58
2019-05-20T15:17:19.577Z,52.75
2019-05-20T15:19:47.792Z,51.80
2019-05-20T15:22:16.003Z,22.70
2019-05-20T15:24:44.220Z,14.00
2019-05-20T15:27:12.502Z,7.95
2019-05-20T15:29:40.805Z,6.83
2019-05-20T15:32:09.005Z,8.65
2019-05-20T15:34:37.213Z,9.73
2019-05-20T15:37:05.939Z,10.08
2019-05-20T15:39:34.147Z,10.23
2019-05-20T15:42:02.674Z,7.50
2019-05-20T15:44:30.928Z,6.78
2019-05-20T15:46:59.274Z,7.17
2019-05-20T15:49:28.231Z,5.60
2019-05-20T15:51:56.428Z,6.25
2019-05-20T15:54:24.709Z,5.45
2019-05-20T15:56:52.910Z,6.47
2019-05-20T15:59:21.116Z,6.50
2019-05-20T16:01:49.311Z,7.00
2019-05-20T16:04:17.527Z,7.47
2019-05-20T16:06:45.730Z,10.20
2019-05-20T16:09:17.037Z,12.05
2019-05-20T16:11:44.581Z,14.28
2019-05-20T16:14:12.806Z,13.35
2019-05-20T16:16:41.493Z,12.13
2019-05-20T16:19:09.718Z,11.90
2019-05-20T16:21:37.923Z,8.93
2019-05-20T16:24:06.250Z,8.23
2019-05-20T16:26:34.464Z,8.88
2019-05-20T16:29:02.661Z,9.13
2019-05-20T16:31:30.846Z,8.65
2019-05-20T16:33:59.738Z,8.15
2019-05-20T16:36:28.605Z,8.45
2019-05-20T16:38:56.834Z,8.20
2019-05-20T16:41:25.075Z,6.62
2019-05-20T16:43:53.551Z,6.92
2019-05-20T16:46:22.040Z,7.17
2019-05-20T16:48:50.228Z,7.00
2019-05-20T16:51:21.960Z,7.47
2019-05-20T16:53:48.608Z,7.90
2019-05-20T16:56:16.814Z,8.43
2019-05-20T16:58:45.014Z,9.13
2019-05-20T17:01:13.209Z,9.58
2019-05-20T17:03:41.412Z,10.15
2019-05-20T17:06:10.294Z,9.63
2019-05-20T17:08:38.795Z,10.30
2019-05-20T17:11:07.000Z,11.20
2019-05-20T17:13:35.199Z,7.42
2019-05-20T17:16:03.418Z,6.35
2019-05-20T17:18:31.609Z,6.80
2019-05-20T17:20:59.826Z,6.90
2019-05-20T17:23:28.582Z,7.00
2019-05-20T17:25:56.803Z,8.33
2019-05-20T17:28:25.020Z,10.50
2019-05-20T17:30:53.237Z,17.60
2019-05-20T17:33:21.442Z,14.10
2019-05-20T17:35:49.651Z,15.55
2019-05-20T17:38:17.850Z,13.38
2019-05-20T17:40:46.069Z,15.63
2019-05-20T17:43:14.956Z,13.18
2019-05-20T17:45:43.161Z,11.80
2019-05-20T17:48:11.384Z,11.45
2019-05-20T17:50:39.580Z,11.57
2019-05-20T17:53:08.561Z,12.90
2019-05-20T17:55:36.822Z,14.75
2019-05-20T17:58:05.004Z,16.00
2019-05-20T18:00:33.206Z,17.02
2019-05-20T18:03:01.416Z,17.75
2019-05-20T18:05:30.214Z,19.65
2019-05-20T18:07:58.434Z,19.05
2019-05-20T18:10:26.638Z,21.15
2019-05-20T18:12:54.856Z,20.43
2019-05-20T18:15:25.171Z,25.85
2019-05-20T18:17:53.855Z,30.50
2019-05-20T18:20:22.081Z,23.90
2019-05-20T18:22:50.328Z,21.33
2019-05-20T18:25:18.526Z,23.00
2019-05-20T18:27:46.751Z,24.72
2019-05-20T18:30:14.962Z,24.72
2019-05-20T18:32:43.169Z,26.02
2019-05-20T18:35:11.370Z,28.00
2019-05-20T18:37:39.583Z,34.98
2019-05-20T18:40:13.833Z,23.62
2019-05-20T18:42:38.620Z,35.13
2019-05-20T18:45:07.374Z,18.35
2019-05-20T18:47:36.252Z,24.05
2019-05-20T18:50:07.568Z,23.22
2019-05-20T18:52:35.782Z,33.25
2019-05-20T18:55:04.550Z,34.05
2019-05-20T18:57:32.785Z,36.65
2019-05-20T19:00:01.593Z,39.42
2019-05-20T19:02:30.044Z,32.83
2019-05-20T19:04:58.300Z,31.37
2019-05-20T19:07:26.844Z,30.32
2019-05-20T19:09:55.062Z,30.43
2019-05-20T19:12:23.303Z,26.80
2019-05-20T19:14:51.547Z,20.12
2019-05-20T19:17:19.715Z,21.27
2019-05-20T19:19:47.921Z,20.88
2019-05-20T19:22:16.127Z,20.82
2019-05-20T19:24:44.332Z,24.63
2019-05-20T19:27:12.548Z,26.55
2019-05-20T19:29:40.743Z,25.95
2019-05-20T19:32:10.504Z,28.80
2019-05-20T19:34:38.828Z,29.37
2019-05-20T19:37:07.441Z,28.35
2019-05-20T19:39:35.645Z,29.00
2019-05-20T19:42:04.188Z,31.27
2019-05-20T19:44:32.465Z,24.18
2019-05-20T19:47:00.671Z,29.07
2019-05-20T19:49:28.890Z,29.85
2019-05-20T19:51:57.123Z,33.75
2019-05-20T19:54:25.349Z,31.57
2019-05-20T19:56:53.549Z,27.85
2019-05-20T19:59:21.764Z,28.60
2019-05-20T20:01:49.963Z,27.10
2019-05-20T20:04:18.215Z,27.90
2019-05-20T20:06:46.854Z,28.23
2019-05-20T20:09:15.057Z,29.95
2019-05-20T20:11:43.287Z,33.50
2019-05-20T20:14:12.264Z,36.83
2019-05-20T20:16:40.469Z,31.37
2019-05-20T20:19:08.701Z,31.65
2019-05-20T20:21:36.891Z,34.83
2019-05-20T20:24:05.091Z,35.83
2019-05-20T20:26:33.292Z,37.23
2019-05-20T20:29:01.573Z,34.00
2019-05-20T20:31:29.724Z,34.88
2019-05-20T20:33:57.948Z,35.05
2019-05-20T20:36:26.314Z,35.10
2019-05-20T20:38:54.532Z,37.48
2019-05-20T20:41:22.746Z,36.85
2019-05-20T20:43:50.946Z,32.67
2019-05-20T20:46:19.146Z,31.40
2019-05-20T20:48:47.353Z,31.95
2019-05-20T20:51:16.123Z,34.08
2019-05-20T20:53:44.339Z,34.83
2019-05-20T20:56:24.822Z,31.07
2019-05-20T20:58:43.152Z,29.60
2019-05-20T21:01:11.358Z,32.95
2019-05-20T21:03:39.600Z,27.70
2019-05-20T21:06:07.798Z,29.37
2019-05-20T21:08:36.010Z,30.43
2019-05-20T21:11:04.217Z,22.48
2019-05-20T21:13:32.431Z,21.97
2019-05-20T21:16:01.112Z,19.80
2019-05-20T21:18:29.315Z,21.40
2019-05-20T21:20:57.516Z,22.65
2019-05-20T21:23:25.961Z,21.65
2019-05-20T21:25:54.165Z,21.02
2019-05-20T21:28:22.376Z,22.70
2019-05-20T21:30:50.597Z,30.10
2019-05-20T21:33:18.862Z,33.48
2019-05-20T21:35:47.058Z,36.95
2019-05-20T21:38:15.277Z,36.80
2019-05-20T21:40:43.475Z,39.50
2019-05-20T21:43:11.686Z,40.33
2019-05-20T21:45:39.893Z,39.55
2019-05-20T21:48:08.377Z,41.83
2019-05-20T21:50:36.590Z,44.42
2019-05-20T21:53:04.794Z,43.25
2019-05-20T21:55:33.270Z,43.70
2019-05-20T21:58:01.478Z,44.83
2019-05-20T22:00:43.752Z,45.40
2019-05-20T22:03:24.002Z,44.08
2019-05-20T22:05:42.250Z,46.77
2019-05-20T22:08:11.023Z,42.85
2019-05-20T22:10:39.233Z,44.73
2019-05-20T22:13:07.436Z,43.33
2019-05-20T22:15:35.654Z,43.73
2019-05-20T22:18:04.196Z,44.33
2019-05-20T22:20:32.971Z,44.63
2019-05-20T22:23:14.675Z,41.73
2019-05-20T22:25:42.886Z,38.90
2019-05-20T22:28:12.878Z,37.42
2019-05-20T22:30:41.843Z,34.80
2019-05-20T22:33:09.998Z,28.67
2019-05-20T22:35:38.221Z,27.22
2019-05-20T22:38:06.416Z,25.92
2019-05-20T22:40:34.627Z,26.80
2019-05-20T22:43:02.835Z,27.93
2019-05-20T22:45:31.632Z,28.85
2019-05-20T22:47:59.831Z,29.45
2019-05-20T22:50:28.044Z,28.32
2019-05-20T22:52:56.246Z,28.75
2019-05-20T22:55:24.457Z,28.67
2019-05-20T22:57:52.659Z,27.35
2019-05-20T23:00:20.872Z,28.55
2019-05-20T23:02:49.145Z,27.80
2019-05-20T23:05:17.354Z,25.55
2019-05-20T23:07:45.559Z,27.55
2019-05-20T23:10:13.775Z,29.65
2019-05-20T23:12:42.301Z,28.30
2019-05-20T23:15:10.955Z,31.60
2019-05-20T23:17:39.154Z,30.00
2019-05-20T23:20:07.708Z,30.30
2019-05-20T23:22:35.907Z,29.25
2019-05-20T23:25:04.658Z,30.02
2019-05-20T23:27:32.862Z,29.65
2019-05-20T23:30:01.074Z,28.35
2019-05-20T23:32:29.280Z,27.70
2019-05-20T23:34:57.497Z,30.32
2019-05-20T23:37:25.700Z,27.30
2019-05-20T23:39:53.909Z,27.13
2019-05-20T23:42:22.114Z,26.45
2019-05-20T23:44:50.990Z,26.87
2019-05-20T23:47:19.187Z,27.42
2019-05-20T23:49:47.395Z,27.87
2019-05-20T23:55:57.264Z,25.92
2019-05-20T23:58:26.136Z,26.23
